Time;durP1;ratioP1;P1;durP2;ratioP2;P2;SDS_P1;SDS_P2;PMS_P1;PMS_P2;Temp;Humidity;BMP_temperature;BMP_pressure;BME280_temperature;BME280_humidity;BME280_pressure;Samples;Min_cycle;Max_cycle;Signal;HPM_P1;HPM_P2
2022/02/08 00:00:40;;;;;;;8.83;4.78;;;;;;;1.50;100.00;98527.25;1676101;84;21047;-59
2022/02/08 00:03:08;;;;;;;6.70;4.12;;;;;;;1.49;100.00;98526.14;1671596;84;21566;-59
2022/02/08 00:05:37;;;;;;;7.33;4.37;;;;;;;1.47;100.00;98529.61;1677164;84;21065;-59
2022/02/08 00:08:04;;;;;;;6.53;4.08;;;;;;;1.48;100.00;98532.58;1681470;84;21066;-59
2022/02/08 00:10:33;;;;;;;6.75;4.00;;;;;;;1.51;100.00;98530.75;1686131;84;21063;-59
2022/02/08 00:12:59;;;;;;;6.95;3.60;;;;;;;1.43;100.00;98536.50;1672216;84;21118;-60
2022/02/08 00:15:26;;;;;;;5.70;3.80;;;;;;;1.40;100.00;98535.65;1683713;84;21134;-59
2022/02/08 00:17:53;;;;;;;;;;;;;;;1.44;100.00;98549.69;1697035;84;21113;-59
2022/02/08 00:20:19;;;;;;;5.53;3.17;;;;;;;1.40;100.00;98548.53;1686606;84;20165;-59
2022/02/08 00:22:46;;;;;;;;;;;;;;;1.34;100.00;98558.89;1682030;84;21063;-59
2022/02/08 00:25:12;;;;;;;4.22;2.62;;;;;;;1.36;100.00;98551.41;1686769;84;20162;-59
2022/02/08 00:27:39;;;;;;;5.28;2.52;;;;;;;1.25;100.00;98548.25;1694225;84;21601;-60
2022/02/08 00:30:06;;;;;;;;;;;;;;;1.25;100.00;98561.66;1689322;84;21031;-59
2022/02/08 00:32:35;;;;;;;4.37;2.20;;;;;;;1.28;100.00;98556.33;1699147;84;20134;-59
2022/02/08 00:35:02;;;;;;;6.17;3.17;;;;;;;1.26;100.00;98550.41;1691550;84;21126;-59
2022/02/08 00:37:29;;;;;;;4.55;2.45;;;;;;;1.23;100.00;98564.30;1676120;84;21138;-59
2022/02/08 00:39:56;;;;;;;3.17;2.25;;;;;;;1.23;100.00;98562.96;1699050;84;21067;-59
2022/02/08 00:42:24;;;;;;;;;;;;;;;1.25;100.00;98568.36;1700724;84;21566;-59
2022/02/08 00:45:02;;;;;;;4.80;2.45;;;;;;;1.28;100.00;98571.90;1692019;84;20126;-58
2022/02/08 00:47:32;;;;;;;5.53;2.70;;;;;;;1.19;100.00;98576.55;1674784;84;21178;-59
2022/02/08 00:49:53;;;;;;;7.05;3.05;;;;;;;1.21;100.00;98573.91;1716786;82;21840;-59
2022/02/08 00:52:19;;;;;;;4.10;2.47;;;;;;;1.26;100.00;98574.02;1742776;82;21576;-60
2022/02/08 00:54:48;;;;;;;4.75;2.15;;;;;;;1.26;100.00;98574.02;1724540;82;21094;-60
2022/02/08 00:57:16;;;;;;;4.05;2.12;;;;;;;1.25;100.00;98576.41;1729028;82;21029;-59
2022/02/08 00:59:43;;;;;;;4.58;2.30;;;;;;;1.33;100.00;98579.23;1736415;82;21083;-59
2022/02/08 01:02:10;;;;;;;3.98;2.12;;;;;;;1.33;100.00;98576.03;1738823;82;21087;-59
2022/02/08 01:04:37;;;;;;;;;;;;;;;1.30;100.00;98583.22;1744586;81;21048;-60
2022/02/08 01:07:05;;;;;;;4.72;2.30;;;;;;;1.31;100.00;98583.48;1733157;82;20170;-58
2022/02/08 01:11:58;;;;;;;4.12;2.42;;;;;;;1.31;100.00;98597.44;1728626;82;21019;-60
2022/02/08 01:14:26;;;;;;;4.58;2.20;;;;;;;1.29;100.00;98590.96;1725190;82;21543;-60
2022/02/08 01:16:52;;;;;;;3.95;2.20;;;;;;;1.30;100.00;98597.95;1721390;82;21546;-58
2022/02/08 01:19:21;;;;;;;3.10;1.77;;;;;;;1.36;100.00;98594.83;1738940;82;21545;-58
2022/02/08 01:21:47;;;;;;;3.92;2.17;;;;;;;1.37;100.00;98601.83;1738515;82;21040;-59
2022/02/08 01:24:14;;;;;;;3.37;2.00;;;;;;;1.32;100.00;98606.56;1728658;82;21024;-58
2022/02/08 01:26:48;;;;;;;4.60;1.90;;;;;;;1.31;100.00;98612.97;1733265;82;21019;-59
2022/02/08 01:29:28;;;;;;;5.25;2.72;;;;;;;1.35;100.00;98618.15;1727721;81;21047;-58
2022/02/08 01:31:48;;;;;;;5.05;2.50;;;;;;;1.33;100.00;98612.22;1715576;82;21151;-59
2022/02/08 01:34:52;;;;;;;3.90;1.80;;;;;;;1.31;100.00;98616.99;1710715;82;21101;-59
2022/02/08 01:37:21;;;;;;;4.05;2.35;;;;;;;1.32;100.00;98618.62;1659594;85;21145;-59
2022/02/08 01:39:44;;;;;;;4.10;2.35;;;;;;;1.34;100.00;98627.79;1711753;82;21570;-58
2022/02/08 01:44:38;;;;;;;3.27;2.30;;;;;;;1.30;100.00;98632.00;1721478;82;20992;-59
2022/02/08 01:47:09;;;;;;;4.80;2.52;;;;;;;1.34;100.00;98629.13;1732934;82;21079;-59
2022/02/08 01:49:36;;;;;;;4.25;2.70;;;;;;;1.35;100.00;98632.08;1722199;82;21071;-59
2022/02/08 01:52:05;;;;;;;4.90;2.92;;;;;;;1.30;100.00;98634.16;1709568;83;21085;-59
2022/02/08 01:54:31;;;;;;;4.72;2.72;;;;;;;1.31;100.00;98631.73;1715426;82;21046;-59
2022/02/08 01:56:58;;;;;;;3.37;2.12;;;;;;;1.33;100.00;98635.02;1734538;82;21080;-59
2022/02/08 01:59:25;;;;;;;3.92;2.45;;;;;;;1.35;100.00;98627.53;1726590;82;21075;-59
2022/02/08 02:01:51;;;;;;;4.25;2.50;;;;;;;1.31;100.00;98634.97;1722515;82;21772;-58
2022/02/08 02:04:18;;;;;;;5.62;2.80;;;;;;;1.28;100.00;98642.13;1697874;82;21110;-59
2022/02/08 02:06:47;;;;;;;6.22;2.72;;;;;;;1.30;100.00;98641.38;1717723;82;21099;-59
2022/02/08 02:09:15;;;;;;;4.22;2.42;;;;;;;1.33;100.00;98640.90;1736410;82;21075;-59
2022/02/08 02:11:42;;;;;;;3.80;2.40;;;;;;;1.31;100.00;98643.80;1730509;82;21137;-59
2022/02/08 02:14:08;;;;;;;4.40;2.47;;;;;;;1.34;100.00;98649.23;1722448;82;21074;-59
2022/02/08 02:17:09;;;;;;;4.70;2.42;;;;;;;1.30;100.00;98654.27;1728096;82;21079;-59
2022/02/08 02:19:09;;;;;;;4.47;2.33;;;;;;;1.35;100.00;98656.20;1713497;82;21036;-59
2022/02/08 02:21:38;;;;;;;3.98;2.27;;;;;;;1.34;100.00;98657.28;1736214;82;21127;-59
2022/02/08 02:24:05;;;;;;;4.22;2.42;;;;;;;1.28;100.00;98666.26;1731831;82;21423;-59
2022/02/08 02:26:33;;;;;;;5.15;2.52;;;;;;;1.27;100.00;98663.31;1701595;83;21601;-59
2022/02/08 02:29:00;;;;;;;3.67;2.10;;;;;;;1.33;100.00;98677.09;1730395;82;20995;-59
2022/02/08 02:31:27;;;;;;;5.00;2.10;;;;;;;1.26;100.00;98675.08;1714558;82;21059;-59
2022/02/08 02:33:54;;;;;;;4.12;2.20;;;;;;;1.23;100.00;98679.58;1646046;86;21023;-59
2022/02/08 02:36:20;;;;;;;4.47;2.35;;;;;;;1.28;100.00;98682.34;1710016;84;21007;-59
2022/02/08 02:38:47;;;;;;;3.83;1.95;;;;;;;1.28;100.00;98691.20;1658407;86;21075;-59
2022/02/08 02:41:15;;;;;;;4.08;2.20;;;;;;;1.31;100.00;98694.75;1727814;82;21669;-59
2022/02/08 02:43:45;;;;;;;3.00;1.70;;;;;;;1.29;100.00;98694.19;1712891;82;20992;-59
2022/02/08 02:46:12;;;;;;;4.08;1.90;;;;;;;1.23;100.00;98701.84;1737150;82;21050;-59
2022/02/08 02:48:39;;;;;;;4.35;2.10;;;;;;;1.25;100.00;98698.91;1724133;82;21024;-59
2022/02/08 02:51:09;;;;;;;2.83;1.70;;;;;;;1.25;100.00;98702.41;1716315;82;21051;-59
2022/02/08 02:53:37;;;;;;;3.05;1.60;;;;;;;1.20;100.00;98700.98;1650008;86;21111;-59
2022/02/08 02:56:06;;;;;;;4.00;1.92;;;;;;;1.19;100.00;98711.92;1690511;84;21033;-58
2022/02/08 02:58:36;;;;;;;3.40;1.62;;;;;;;1.21;100.00;98715.99;1723697;82;21004;-59
2022/02/08 03:17:54;;;;;;;2.40;1.50;;;;;;;1.06;100.00;98737.66;1712219;82;21106;-59
2022/02/08 03:20:08;;;;;;;4.15;1.67;;;;;;;1.07;100.00;98744.63;1734635;82;21590;-59
2022/02/08 03:22:35;;;;;;;4.45;1.67;;;;;;;1.07;100.00;98751.32;1720658;82;21098;-58
2022/02/08 03:25:03;;;;;;;2.60;1.50;;;;;;;1.08;100.00;98752.44;1736876;82;21138;-58
2022/02/08 03:27:29;;;;;;;3.33;1.77;;;;;;;1.10;100.00;98756.23;1734744;82;21338;-59
2022/02/08 03:29:56;;;;;;;2.90;1.45;;;;;;;1.03;100.00;98760.36;1727444;82;21012;-59
2022/02/08 03:32:24;;;;;;;3.70;2.00;;;;;;;1.02;100.00;98770.80;1725518;82;21032;-59
2022/02/08 03:34:51;;;;;;;4.72;1.85;;;;;;;1.05;100.00;98773.02;1733290;82;21675;-59
2022/02/08 03:37:18;;;;;;;3.92;1.75;;;;;;;1.07;100.00;98778.94;1728850;82;21696;-58
2022/02/08 03:39:55;;;;;;;5.30;2.52;;;;;;;1.08;100.00;98781.10;1732242;82;21000;-59
2022/02/08 03:42:19;;;;;;;3.40;1.80;;;;;;;1.06;100.00;98779.20;1712181;82;21051;-59
2022/02/08 03:44:47;;;;;;;5.92;2.00;;;;;;;0.98;100.00;98786.53;1723231;82;21037;-59
2022/02/08 03:47:15;;;;;;;4.78;1.90;;;;;;;0.99;100.00;98790.03;1729353;82;21107;-59
2022/02/08 03:49:41;;;;;;;4.65;1.80;;;;;;;1.03;100.00;98801.11;1714960;82;20988;-58
2022/02/08 03:52:08;;;;;;;4.80;1.95;;;;;;;1.05;100.00;98803.84;1730224;82;21028;-59
2022/02/08 03:54:37;;;;;;;3.80;2.10;;;;;;;0.98;100.00;98805.30;1697365;84;21499;-58
2022/02/08 03:57:07;;;;;;;5.92;1.67;;;;;;;0.95;100.00;98808.45;1680979;84;21063;-59
2022/02/08 03:59:33;;;;;;;4.58;1.62;;;;;;;0.95;100.00;98811.64;1659043;84;21104;-59
2022/02/08 04:04:36;;;;;;;;;;;;;;;0.97;100.00;98825.61;1697393;84;21027;-59
2022/02/08 04:07:02;;;;;;;5.55;1.45;;;;;;;0.96;100.00;98827.99;1691845;84;20146;-59
2022/02/08 04:09:27;;;;;;;5.47;1.75;;;;;;;0.91;100.00;98827.89;1675367;84;21074;-59
2022/02/08 04:12:05;;;;;;;4.28;2.05;;;;;;;0.90;100.00;98821.70;1715740;83;21057;-59
2022/02/08 04:14:45;;;;;;;3.33;1.57;;;;;;;0.91;100.00;98833.25;1720035;82;20996;-59
2022/02/08 04:41:58;;;;;;;3.67;1.55;;;;;;;0.80;100.00;98890.30;1728554;82;21051;-59
2022/02/08 04:46:47;;;;;;;4.05;2.00;;;;;;;0.78;100.00;98899.90;1717843;82;21039;-59
2022/02/08 04:49:07;;;;;;;3.67;1.60;;;;;;;0.76;100.00;98895.83;1716887;82;21016;-60
2022/02/08 04:51:45;;;;;;;3.27;1.60;;;;;;;0.76;100.00;98902.00;1721523;82;21051;-59
2022/02/08 05:02:28;;;;;;;3.08;1.40;;;;;;;0.75;100.00;98916.44;1738412;82;21557;-60
2022/02/08 05:34:15;;;;;;;5.70;1.50;;;;;;;0.57;100.00;98963.91;1737931;82;20979;-59
2022/02/08 05:37:18;;;;;;;3.08;1.47;;;;;;;0.59;100.00;98965.81;1734782;82;21022;-59
2022/02/08 05:44:43;;;;;;;2.95;1.10;;;;;;;0.60;100.00;98980.86;1744139;82;20987;-58
2022/02/08 05:47:09;;;;;;;2.80;1.40;;;;;;;0.62;100.00;98989.47;1724424;81;21055;-59
2022/02/08 05:49:42;;;;;;;2.95;1.25;;;;;;;0.60;100.00;98989.71;1748270;82;21003;-59
2022/02/08 05:54:38;;;;;;;4.05;1.82;;;;;;;0.64;100.00;98996.23;1753206;82;21485;-61
2022/02/08 05:57:07;;;;;;;3.85;1.67;;;;;;;0.61;100.00;99000.70;1740887;82;21529;-61
2022/02/08 05:59:33;;;;;;;8.00;1.90;;;;;;;0.59;100.00;99003.31;1660412;85;21063;-59
2022/02/08 06:02:00;;;;;;;3.37;1.30;;;;;;;0.63;100.00;99001.83;1736653;82;21035;-59
2022/02/08 06:04:29;;;;;;;4.28;1.40;;;;;;;0.65;100.00;99007.25;1730301;82;21820;-62
2022/02/08 06:06:56;;;;;;;;;;;;;;;0.62;100.00;99010.89;1725127;82;21516;-61
2022/02/08 06:09:22;;;;;;;5.30;1.63;;;;;;;0.63;100.00;99013.88;1715527;82;20439;-60
2022/02/08 06:11:50;;;;;;;3.87;1.70;;;;;;;0.63;100.00;99012.54;1717110;82;21585;-59
2022/02/08 06:14:24;;;;;;;4.53;1.65;;;;;;;0.67;100.00;99018.57;1735668;82;21557;-59
2022/02/08 06:16:46;;;;;;;5.53;1.87;;;;;;;0.62;100.00;99026.97;1720458;82;21058;-59
2022/02/08 06:19:12;;;;;;;6.25;2.00;;;;;;;0.62;100.00;99037.16;1724058;82;21522;-59
2022/02/08 06:21:39;;;;;;;5.40;1.85;;;;;;;0.65;100.00;99025.17;1735523;82;21640;-60
2022/02/08 06:24:07;;;;;;;5.33;2.12;;;;;;;0.68;100.00;99034.09;1735949;82;21507;-59
2022/02/08 06:26:34;;;;;;;5.08;1.90;;;;;;;0.69;100.00;99027.19;1735052;82;21482;-59
2022/02/08 06:29:08;;;;;;;3.05;1.45;;;;;;;0.70;100.00;99034.19;1739208;82;21514;-59
2022/02/08 06:31:28;;;;;;;4.08;1.52;;;;;;;0.67;100.00;99043.20;1722987;82;21422;-59
2022/02/08 06:33:55;;;;;;;5.53;1.77;;;;;;;0.68;100.00;99050.16;1709855;84;20976;-59
2022/02/08 06:36:21;;;;;;;4.17;1.30;;;;;;;0.69;100.00;99042.44;1719755;82;21040;-59
2022/02/08 06:38:48;;;;;;;3.87;1.62;;;;;;;0.72;100.00;99048.16;1708309;84;21041;-60
2022/02/08 06:41:14;;;;;;;3.92;1.30;;;;;;;0.71;100.00;99051.09;1712857;82;21052;-59
2022/02/08 06:43:40;;;;;;;5.10;1.80;;;;;;;0.71;100.00;99045.73;1736153;82;20987;-59
2022/02/08 06:46:07;;;;;;;4.70;1.52;;;;;;;0.76;100.00;99053.89;1710435;82;21035;-59
2022/02/08 06:48:34;;;;;;;5.12;1.67;;;;;;;0.78;100.00;99062.54;1738278;82;21076;-59
2022/02/08 06:51:01;;;;;;;3.75;1.40;;;;;;;0.75;100.00;99058.42;1739141;82;20996;-59
2022/02/08 06:53:27;;;;;;;4.05;1.40;;;;;;;0.78;100.00;99066.55;1722620;82;21035;-59
2022/02/08 06:55:54;;;;;;;4.55;1.70;;;;;;;0.80;100.00;99069.81;1713725;82;21051;-58
2022/02/08 06:58:24;;;;;;;;;;;;;;;0.82;100.00;99073.89;1714699;82;21051;-58
2022/02/08 07:00:50;;;;;;;3.35;1.05;;;;;;;0.80;100.00;99084.03;1715042;82;20464;-59
2022/02/08 07:03:17;;;;;;;2.85;1.27;;;;;;;0.81;100.00;99085.68;1717284;82;21072;-59
2022/02/08 07:05:44;;;;;;;3.42;0.90;;;;;;;0.86;100.00;99083.12;1740881;81;21066;-59
2022/02/08 07:08:12;;;;;;;2.62;1.10;;;;;;;0.90;100.00;99076.80;1750322;82;21729;-59
2022/02/08 07:10:41;;;;;;;3.90;1.00;;;;;;;0.88;100.00;99089.09;1746295;82;21577;-59
2022/02/08 07:13:08;;;;;;;3.55;1.07;;;;;;;0.91;100.00;99091.84;1723444;82;21042;-59
2022/02/08 07:15:35;;;;;;;3.27;0.90;;;;;;;0.92;100.00;99095.62;1723668;82;21055;-59
2022/02/08 07:21:44;;;;;;;4.17;0.90;;;;;;;0.99;100.00;99108.96;1797891;79;22676;-59
2022/02/08 07:24:11;;;;;;;4.35;1.20;;;;;;;0.91;100.00;99106.06;1743620;82;21030;-58
2022/02/08 07:26:38;;;;;;;2.85;0.90;;;;;;;0.95;100.00;99117.16;1747303;80;21055;-59
2022/02/08 07:29:06;;;;;;;3.50;1.20;;;;;;;0.97;100.00;99128.45;1717754;82;21589;-58
2022/02/08 07:31:39;;;;;;;5.30;1.40;;;;;;;0.99;100.00;99122.36;1742073;80;21727;-59
2022/02/08 07:34:54;;;;;;;4.03;1.10;;;;;;;1.03;100.00;99135.58;1735847;82;21027;-59
2022/02/08 07:39:01;;;;;;;6.08;1.90;;;;;;;1.11;100.00;99136.62;1741058;82;21949;-60
2022/02/08 07:41:39;;;;;;;5.58;1.62;;;;;;;1.14;100.00;99140.20;1742153;80;21578;-58
2022/02/08 07:44:09;;;;;;;;;;;;;;;1.16;100.00;99147.51;1741344;81;21026;-58
2022/02/08 07:46:49;;;;;;;4.53;1.55;;;;;;;1.22;100.00;99155.16;1718637;81;20161;-59
2022/02/08 07:49:15;;;;;;;4.85;1.77;;;;;;;1.20;100.00;99164.78;1729200;82;21105;-58
2022/02/08 07:51:43;;;;;;;3.95;1.30;;;;;;;1.28;100.00;99160.43;1739543;82;21019;-58
2022/02/08 07:54:09;;;;;;;4.40;1.47;;;;;;;1.32;100.00;99159.45;1727063;82;21171;-58
2022/02/08 07:56:36;;;;;;;4.90;1.10;;;;;;;1.36;100.00;99166.01;1735685;80;21062;-58
2022/02/08 07:59:02;;;;;;;3.33;0.82;;;;;;;1.37;100.00;99174.36;1697680;84;21037;-58
2022/02/08 08:01:29;;;;;;;4.00;1.00;;;;;;;1.42;100.00;99179.33;1699075;83;21126;-57
2022/02/08 08:03:56;;;;;;;2.67;0.90;;;;;;;1.44;100.00;99177.26;1696783;84;21731;-58
2022/02/08 08:06:23;;;;;;;2.67;0.90;;;;;;;1.48;100.00;99184.33;1688700;85;21604;-58
2022/02/08 08:08:51;;;;;;;4.53;1.15;;;;;;;1.50;100.00;99187.08;1656466;85;22024;-58
2022/02/08 08:11:22;;;;;;;3.58;0.88;;;;;;;1.55;100.00;99193.11;1680953;84;21393;-59
2022/02/08 08:13:59;;;;;;;2.62;1.00;;;;;;;1.57;100.00;99198.23;1678556;84;20974;-58
2022/02/08 08:19:01;;;;;;;1.95;0.70;;;;;;;1.66;100.00;99200.91;1690147;84;21010;-58
2022/02/08 08:21:26;;;;;;;2.90;0.80;;;;;;;1.70;100.00;99206.91;1659094;84;21755;-58
2022/02/08 08:23:53;;;;;;;2.00;0.80;;;;;;;1.69;100.00;99208.50;1647622;87;21538;-59
2022/02/08 08:26:20;;;;;;;2.83;0.90;;;;;;;1.71;100.00;99213.11;1655114;85;21120;-59
2022/02/08 08:28:47;;;;;;;2.65;0.70;;;;;;;1.74;100.00;99226.06;1649398;87;21007;-57
2022/02/08 08:31:14;;;;;;;3.02;0.80;;;;;;;1.79;100.00;99232.92;1655381;86;21062;-59
2022/02/08 08:33:40;;;;;;;4.90;1.30;;;;;;;1.82;100.00;99228.44;1690879;83;20967;-57
2022/02/08 08:36:07;;;;;;;3.83;1.25;;;;;;;1.86;100.00;99222.91;1688500;85;21050;-57
2022/02/08 08:38:35;;;;;;;2.87;1.27;;;;;;;1.92;100.00;99230.87;1704172;83;20982;-58
2022/02/08 08:41:21;;;;;;;3.58;1.00;;;;;;;2.02;100.00;99236.23;1700159;83;21006;-57
2022/02/08 08:50:03;;;;;;;4.20;1.65;;;;;;;2.14;100.00;99241.92;1640682;86;21041;-58
2022/02/08 08:51:43;;;;;;;3.77;1.60;;;;;;;2.14;100.00;99244.61;1630825;86;21047;-59
2022/02/08 08:54:09;;;;;;;4.05;1.67;;;;;;;2.10;100.00;99248.79;1658838;85;21031;-58
2022/02/08 08:56:43;;;;;;;5.35;1.95;;;;;;;2.14;100.00;99251.84;1696226;83;21113;-58
2022/02/08 08:59:32;;;;;;;3.25;1.40;;;;;;;2.13;100.00;99251.02;1685178;85;21019;-59
2022/02/08 09:01:59;;;;;;;3.87;1.72;;;;;;;2.12;100.00;99261.48;1678512;84;21066;-59
2022/02/08 09:04:32;;;;;;;6.20;2.55;;;;;;;2.08;100.00;99262.98;1683698;84;21063;-58
2022/02/08 09:06:53;;;;;;;4.62;2.00;;;;;;;2.08;100.00;99265.66;1686793;84;21122;-58
2022/02/08 09:09:24;;;;;;;4.12;1.40;;;;;;;2.08;100.00;99269.69;1690413;84;21082;-59
2022/02/08 09:12:00;;;;;;;2.40;1.10;;;;;;;2.02;100.00;99263.87;1682043;84;21605;-58
2022/02/08 09:14:25;;;;;;;3.65;1.20;;;;;;;1.99;100.00;99273.20;1680940;84;21039;-58
2022/02/08 09:17:05;;;;;;;2.30;0.75;;;;;;;1.97;100.00;99267.26;1689945;84;21090;-58
2022/02/08 09:22:36;;;;;;;2.85;1.20;;;;;;;1.93;100.00;99278.16;1633914;87;21101;-59
2022/02/08 09:25:27;;;;;;;3.70;1.50;;;;;;;1.96;100.00;99283.58;1640076;84;21093;-60
2022/02/08 09:30:17;;;;;;;1.75;0.70;;;;;;;2.08;100.00;99281.78;1692965;85;21109;-60
2022/02/08 09:32:46;;;;;;;2.37;0.80;;;;;;;2.09;100.00;99280.70;1694905;84;21588;-59
2022/02/08 09:35:12;;;;;;;2.12;0.57;;;;;;;2.06;100.00;99285.19;1689585;84;21090;-59
2022/02/08 09:37:38;;;;;;;3.95;0.90;;;;;;;2.05;100.00;99287.61;1690394;84;21094;-59
2022/02/08 09:40:06;;;;;;;3.55;0.95;;;;;;;2.05;100.00;99292.15;1680836;84;21532;-58
2022/02/08 09:42:36;;;;;;;3.77;0.95;;;;;;;2.02;100.00;99293.41;1681129;84;21062;-59
2022/02/08 09:45:02;;;;;;;2.75;1.17;;;;;;;1.99;100.00;99293.34;1684957;84;21010;-58
2022/02/08 09:47:39;;;;;;;2.80;1.20;;;;;;;1.95;100.00;99283.28;1681074;84;21019;-58
2022/02/08 09:50:08;;;;;;;3.40;1.20;;;;;;;1.92;100.00;99289.92;1674412;84;21070;-58
2022/02/08 09:52:29;;;;;;;6.17;1.42;;;;;;;1.85;100.00;99280.31;1674229;86;21034;-59
2022/02/08 09:54:56;;;;;;;2.42;1.20;;;;;;;1.85;100.00;99284.34;1680572;85;21000;-58
2022/02/08 09:57:22;;;;;;;3.95;1.50;;;;;;;1.85;100.00;99291.87;1678469;84;21097;-59
2022/02/08 09:59:49;;;;;;;3.42;1.20;;;;;;;1.81;100.00;99286.66;1682815;84;21007;-58
2022/02/08 10:02:20;;;;;;;3.10;1.12;;;;;;;1.80;100.00;99285.56;1653166;85;21090;-59
2022/02/08 10:04:46;;;;;;;2.85;1.42;;;;;;;1.81;100.00;99285.31;1635910;86;21053;-59
2022/02/08 10:07:14;;;;;;;3.62;1.10;;;;;;;1.80;100.00;99281.53;1628258;86;21110;-58
2022/02/08 10:09:42;;;;;;;3.92;1.30;;;;;;;1.83;100.00;99282.42;1665866;85;21086;-58
2022/02/08 10:12:10;;;;;;;3.20;1.27;;;;;;;1.87;100.00;99272.88;1664714;86;21154;-59
2022/02/08 10:22:58;;;;;;;2.62;1.30;;;;;;;1.94;100.00;99276.29;1669101;85;21007;-59
2022/02/08 10:28:17;;;;;;;4.58;1.35;;;;;;;1.96;100.00;99260.24;1663551;86;21102;-63
2022/02/08 10:31:01;;;;;;;2.77;1.10;;;;;;;2.09;100.00;99267.28;1634937;86;21077;-61
2022/02/08 10:38:42;;;;;;;5.12;1.07;;;;;;;2.11;100.00;99261.70;1642741;87;20985;-59
2022/02/08 10:41:15;;;;;;;5.65;0.95;;;;;;;2.08;100.00;99260.30;1620033;86;22015;-59
2022/02/08 10:43:42;;;;;;;2.72;0.95;;;;;;;2.09;100.00;99262.46;1641853;87;21046;-60
2022/02/08 10:46:21;;;;;;;3.92;1.30;;;;;;;2.17;100.00;99267.48;1643960;86;21529;-60
2022/02/08 10:48:50;;;;;;;3.52;1.05;;;;;;;2.24;100.00;99264.18;1653963;85;21058;-60
2022/02/08 10:51:17;;;;;;;2.33;0.65;;;;;;;2.17;100.00;99260.25;1635495;86;21135;-60
2022/02/08 10:53:56;;;;;;;2.08;0.80;;;;;;;2.09;100.00;99263.25;1657453;86;20974;-60
2022/02/08 10:56:13;;;;;;;3.95;0.90;;;;;;;2.09;100.00;99276.67;1646126;85;21054;-63
2022/02/08 10:58:49;;;;;;;3.05;0.90;;;;;;;2.05;100.00;99278.20;1655066;86;21042;-63
2022/02/08 11:01:17;;;;;;;2.17;0.70;;;;;;;2.02;100.00;99269.23;1655034;84;21094;-60
2022/02/08 11:03:51;;;;;;;2.00;0.78;;;;;;;1.99;100.00;99274.55;1670333;85;21026;-63
2022/02/08 11:06:38;;;;;;;2.92;1.10;;;;;;;2.01;100.00;99277.02;1623754;87;21026;-63
2022/02/08 11:09:10;;;;;;;5.28;1.27;;;;;;;2.04;100.00;99276.56;1661148;85;21054;-62
2022/02/08 11:11:52;;;;;;;2.10;0.75;;;;;;;2.10;100.00;99266.24;1669751;85;21695;-59
2022/02/08 11:23:07;;;;;;;4.17;1.30;;;;;;;2.30;100.00;99265.42;1663069;85;21092;-59
2022/02/08 11:24:52;;;;;;;5.20;1.25;;;;;;;2.28;100.00;99270.22;1665582;85;21070;-59
2022/02/08 11:27:20;;;;;;;2.65;0.72;;;;;;;2.29;100.00;99271.86;1663548;85;21019;-58
2022/02/08 11:30:09;;;;;;;3.30;1.10;;;;;;;2.31;100.00;99268.92;1627466;86;21586;-59
2022/02/08 11:32:46;;;;;;;3.00;1.00;;;;;;;2.31;100.00;99276.47;1631778;87;21101;-58
2022/02/08 11:46:38;;;;;;;4.17;1.25;;;;;;;2.19;100.00;99268.91;1650398;87;21125;-59
2022/02/08 12:05:14;;;;;;;5.10;1.12;;;;;;;2.29;100.00;99279.92;1586770;86;21007;-60
2022/02/08 12:07:19;;;;;;;3.40;1.15;;;;;;;2.25;100.00;99283.28;1648764;86;21074;-60
2022/02/08 12:09:57;;;;;;;2.60;0.98;;;;;;;2.22;100.00;99294.48;1667294;85;21034;-59
2022/02/08 12:12:47;;;;;;;3.20;1.02;;;;;;;2.25;100.00;99288.13;1674699;85;21078;-60
2022/02/08 12:32:18;;;;;;;4.37;0.90;;;;;;;2.28;100.00;99297.07;1660880;86;21043;-58
2022/02/08 13:01:56;;;;;;;4.90;1.87;;;;;;;2.36;100.00;99324.96;1658656;86;21072;-59
2022/02/08 13:20:21;;;;;;;2.45;0.75;;;;;;;2.14;100.00;99334.56;1675300;85;20953;-58
2022/02/08 14:09:23;;;;;;;7.85;3.67;;;;;;;1.83;100.00;99360.25;1695020;83;20999;-58
2022/02/08 14:17:13;;;;;;;5.60;2.33;;;;;;;1.80;100.00;99358.02;1691354;83;21043;-59
2022/02/08 14:24:47;;;;;;;7.12;1.40;;;;;;;1.67;100.00;99352.27;1695788;83;21074;-58
2022/02/08 14:29:56;;;;;;;8.63;1.57;;;;;;;1.56;100.00;99346.30;1648489;86;21028;-58
2022/02/08 14:32:30;;;;;;;4.80;1.50;;;;;;;1.53;100.00;99351.29;1699354;83;21097;-57
2022/02/08 14:35:32;;;;;;;6.33;2.22;;;;;;;1.53;100.00;99358.82;1689266;84;21065;-58
2022/02/08 15:08:13;;;;;;;16.40;6.87;;;;;;;1.44;100.00;99352.12;1682639;83;21083;-59
2022/02/08 15:09:57;;;;;;;15.05;6.25;;;;;;;1.44;100.00;99344.90;1674593;84;21585;-59
2022/02/08 15:12:24;;;;;;;11.22;5.33;;;;;;;1.47;100.00;99352.49;1654897;85;21050;-57
2022/02/08 15:14:58;;;;;;;7.58;2.77;;;;;;;1.47;100.00;99353.02;1694486;83;20960;-59
2022/02/08 15:17:20;;;;;;;7.72;3.30;;;;;;;1.47;100.00;99358.38;1691023;83;21125;-58
2022/02/08 15:19:49;;;;;;;8.83;3.00;;;;;;;1.46;100.00;99360.75;1665208;85;20997;-59
2022/02/08 15:22:17;;;;;;;5.85;2.30;;;;;;;1.45;100.00;99359.92;1705334;83;21110;-58
2022/02/08 15:24:44;;;;;;;8.85;3.70;;;;;;;1.46;100.00;99369.63;1656694;85;20967;-58
2022/02/08 15:27:13;;;;;;;6.55;2.72;;;;;;;1.44;100.00;99365.02;1696048;84;21110;-59
2022/02/08 15:29:40;;;;;;;6.53;3.02;;;;;;;1.44;100.00;99367.70;1694375;84;20974;-59
2022/02/08 15:32:13;;;;;;;;;;;;;;;1.45;100.00;99370.66;1686084;84;21069;-60
2022/02/08 15:34:36;;;;;;;7.17;3.40;;;;;;;1.45;100.00;99372.00;1683452;84;20154;-62
2022/02/08 15:37:03;;;;;;;14.23;7.17;;;;;;;1.43;100.00;99371.41;1694459;84;21684;-61
2022/02/08 15:39:29;;;;;;;12.07;6.37;;;;;;;1.43;100.00;99371.41;1701792;83;20982;-60
2022/02/08 15:41:56;;;;;;;16.73;8.15;;;;;;;1.45;100.00;99377.36;1710320;84;21014;-60
2022/02/08 15:44:22;;;;;;;14.15;7.17;;;;;;;1.47;100.00;99369.93;1688937;84;21000;-60
2022/02/08 15:46:51;;;;;;;12.10;6.08;;;;;;;1.46;100.00;99371.48;1690870;85;21131;-60
2022/02/08 15:49:18;;;;;;;10.28;5.55;;;;;;;1.45;100.00;99368.52;1658982;86;20996;-60
2022/02/08 15:51:47;;;;;;;11.48;5.83;;;;;;;1.44;100.00;99367.70;1692373;85;21562;-62
2022/02/08 16:05:33;;;;;;;14.38;7.10;;;;;;;1.40;100.00;99369.17;1678817;84;21497;-60
2022/02/08 16:08:00;;;;;;;12.78;6.65;;;;;;;1.39;100.00;99364.02;1686946;83;21565;-60
2022/02/08 16:10:49;;;;;;;14.55;7.97;;;;;;;1.36;100.00;99368.49;1686266;85;21012;-59
2022/02/08 16:16:06;;;;;;;17.73;9.05;;;;;;;1.37;100.00;99360.75;1706174;83;20983;-60
2022/02/08 16:18:24;;;;;;;15.83;8.68;;;;;;;1.36;100.00;99362.61;1666399;85;21079;-60
2022/02/08 16:23:59;;;;;;;12.45;7.20;;;;;;;1.32;100.00;99363.27;1701371;83;21188;-58
2022/02/08 16:26:22;;;;;;;14.47;7.85;;;;;;;1.31;100.00;99357.62;1672705;85;21494;-58
2022/02/08 16:28:53;;;;;;;18.35;8.55;;;;;;;1.27;100.00;99368.48;1647388;85;20982;-59
2022/02/08 16:48:11;;;;;;;19.50;9.50;;;;;;;1.07;100.00;99365.14;1691074;83;21067;-59
2022/02/08 16:57:42;;;;;;;17.73;9.63;;;;;;;0.98;100.00;99365.95;1698651;84;21040;-59
2022/02/08 17:00:07;;;;;;;16.65;8.90;;;;;;;0.97;100.00;99363.79;1692311;84;20993;-59
2022/02/08 17:02:37;;;;;;;21.30;10.18;;;;;;;0.98;100.00;99369.98;1679854;84;21101;-58
2022/02/08 17:05:03;;;;;;;17.73;10.13;;;;;;;0.99;100.00;99371.62;1683425;83;21447;-59
2022/02/08 17:07:36;;;;;;;19.12;10.00;;;;;;;1.02;100.00;99373.04;1679311;84;21119;-59
2022/02/08 17:10:03;;;;;;;18.15;9.78;;;;;;;1.03;100.00;99376.03;1669336;84;21062;-59
2022/02/08 17:12:44;;;;;;;19.73;10.15;;;;;;;1.05;100.00;99377.95;1661996;85;21142;-60
2022/02/08 17:49:39;;;;;;;26.50;12.85;;;;;;;0.96;100.00;99377.39;1689025;85;21409;-60
2022/02/08 17:52:06;;;;;;;25.65;11.50;;;;;;;0.95;100.00;99383.30;1693920;83;21027;-60
2022/02/08 17:54:32;;;;;;;17.42;8.80;;;;;;;0.95;100.00;99375.27;1695308;83;21470;-61
2022/02/08 17:56:59;;;;;;;14.68;6.70;;;;;;;0.99;100.00;99375.09;1646559;87;21614;-60
2022/02/08 17:59:26;;;;;;;;;;;;;;;0.99;100.00;99379.12;1694482;85;21466;-60
2022/02/08 18:01:53;;;;;;;15.20;6.78;;;;;;;1.02;100.00;99376.55;1690804;85;20426;-59
2022/02/08 18:04:20;;;;;;;13.65;7.15;;;;;;;0.98;100.00;99360.59;1665188;84;21428;-60
2022/02/08 18:06:46;;;;;;;14.50;6.58;;;;;;;1.03;100.00;99358.06;1636877;87;21048;-60
2022/02/08 18:09:14;;;;;;;;;;;;;;;1.07;100.00;99359.78;1643351;87;20999;-60
2022/02/08 18:11:42;;;;;;;14.10;6.47;;;;;;;1.09;100.00;99363.08;1640161;87;20463;-60
2022/02/08 18:14:09;;;;;;;12.13;5.53;;;;;;;1.06;100.00;99363.01;1617469;87;21018;-60